Time;durP1;ratioP1;P1;durP2;ratioP2;P2;SDS_P1;SDS_P2;PMS_P1;PMS_P2;Temp;Humidity;BMP_temperature;BMP_pressure;BME280_temperature;BME280_humidity;BME280_pressure;Samples;Min_cycle;Max_cycle;Signal;HPM_P1;HPM_P2
2023/09/21 00:00:34;;;;;;;0.30;0.30;;;;;;;20.49;55.46;101187.03;4786100;29;20403;-81
2023/09/21 00:03:00;;;;;;;0.10;0.10;;;;;;;20.60;55.32;101196.22;4785737;30;20493;-79
2023/09/21 00:05:31;;;;;;;0.10;0.10;;;;;;;20.58;55.51;101195.59;4787408;29;20831;-79
2023/09/21 00:07:57;;;;;;;0.20;0.20;;;;;;;20.49;56.06;101196.94;4770441;30;20808;-80
2023/09/21 00:10:25;;;;;;;0.20;0.20;;;;;;;20.36;56.29;101198.72;4800461;29;20931;-80
2023/09/21 00:12:52;;;;;;;0.40;0.40;;;;;;;20.19;56.83;101189.63;4785531;30;20400;-79
2023/09/21 00:15:18;;;;;;;0.30;0.30;;;;;;;20.16;56.92;101198.94;4786980;29;20461;-79
2023/09/21 00:17:47;;;;;;;0.13;0.13;;;;;;;20.13;57.16;101190.47;4787188;29;20404;-80
2023/09/21 00:20:29;;;;;;;0.10;0.10;;;;;;;20.17;57.20;101197.09;4785665;30;20405;-79
2023/09/21 00:22:59;;;;;;;0.70;0.60;;;;;;;20.19;57.15;101200.38;4787268;29;20396;-80
2023/09/21 00:25:28;;;;;;;0.10;0.10;;;;;;;20.28;56.69;101192.84;4786874;29;20428;-80
2023/09/21 00:27:53;;;;;;;0.10;0.10;;;;;;;20.30;56.58;101194.25;4786640;29;20432;-80
2023/09/21 00:30:19;;;;;;;0.20;0.20;;;;;;;20.38;56.33;101188.59;4786849;29;20483;-80
2023/09/21 00:32:47;;;;;;;0.10;0.10;;;;;;;20.48;55.84;101187.25;4786585;29;20830;-79
2023/09/21 00:35:15;;;;;;;5.63;0.40;;;;;;;20.52;55.64;101186.56;4786711;29;20401;-79
2023/09/21 00:37:43;;;;;;;0.10;0.10;;;;;;;20.50;55.70;101185.97;4786294;29;20443;-79
2023/09/21 00:40:20;;;;;;;0.20;0.20;;;;;;;20.56;55.49;101190.47;4770213;30;20474;-81
2023/09/21 00:42:47;;;;;;;0.20;0.20;;;;;;;20.47;55.65;101185.59;4784959;30;20412;-80
2023/09/21 00:45:14;;;;;;;0.20;0.20;;;;;;;20.50;55.45;101185.13;4784595;29;20424;-80
2023/09/21 00:47:55;;;;;;;0.20;0.20;;;;;;;20.51;55.53;101190.31;4785833;29;20481;-80
2023/09/21 00:50:24;;;;;;;0.10;0.10;;;;;;;20.47;55.60;101186.41;4784791;29;20420;-80
2023/09/21 00:52:53;;;;;;;0.10;0.10;;;;;;;20.51;55.49;101197.53;4782605;29;20447;-80
2023/09/21 00:55:31;;;;;;;0.20;0.20;;;;;;;20.51;55.31;101193.00;4769485;30;20900;-80
2023/09/21 00:58:07;;;;;;;0.10;0.10;;;;;;;20.56;55.29;101192.31;4784584;30;20408;-80
2023/09/21 01:00:34;;;;;;;0.30;0.30;;;;;;;20.57;55.28;101191.28;4772490;29;20427;-80
2023/09/21 01:03:11;;;;;;;0.43;0.43;;;;;;;20.52;55.42;101191.13;4772550;29;20515;-81
2023/09/21 01:05:45;;;;;;;0.15;0.15;;;;;;;20.48;55.44;101201.53;4784183;29;20412;-80
2023/09/21 01:08:16;;;;;;;0.30;0.30;;;;;;;20.48;55.71;101196.13;4784370;30;20448;-79
2023/09/21 01:10:49;;;;;;;0.10;0.10;;;;;;;20.52;55.25;101191.13;4785859;29;20465;-81
2023/09/21 01:13:15;;;;;;;0.60;0.50;;;;;;;20.52;55.42;101194.63;4755810;30;20413;-80
2023/09/21 01:15:45;;;;;;;0.40;0.40;;;;;;;20.45;55.84;101196.56;4784283;29;20445;-79
2023/09/21 01:18:16;;;;;;;0.40;0.40;;;;;;;20.40;55.73;101191.88;4784322;30;20492;-77
2023/09/21 01:20:45;;;;;;;0.30;0.30;;;;;;;20.41;55.65;101192.69;4785651;29;20907;-79
2023/09/21 01:23:19;;;;;;;0.20;0.20;;;;;;;20.54;55.38;101195.22;4784192;29;20397;-80
2023/09/21 01:25:50;;;;;;;0.20;0.20;;;;;;;20.61;55.13;101189.81;4770005;30;20499;-80
2023/09/21 01:28:22;;;;;;;1.20;1.00;;;;;;;20.65;55.01;101188.28;4784382;29;20432;-80
2023/09/21 01:30:49;;;;;;;0.10;0.10;;;;;;;20.68;54.80;101187.03;4784052;29;20416;-80
2023/09/21 01:33:15;;;;;;;0.20;0.20;;;;;;;20.62;54.94;101181.50;4753544;30;20412;-80
2023/09/21 01:35:45;;;;;;;0.10;0.10;;;;;;;20.55;55.40;101185.28;4784888;29;20404;-80
2023/09/21 01:38:19;;;;;;;0.10;0.10;;;;;;;20.47;55.99;101185.59;4769752;30;20818;-80
2023/09/21 01:40:46;;;;;;;0.35;0.35;;;;;;;20.26;56.53;101182.28;4785351;29;20424;-80
2023/09/21 01:43:14;;;;;;;0.10;0.10;;;;;;;20.12;57.22;101178.91;4784104;29;20408;-80
2023/09/21 01:45:40;;;;;;;0.10;0.10;;;;;;;20.00;57.83;101181.47;4783962;29;20408;-80
2023/09/21 01:48:10;;;;;;;0.70;0.22;;;;;;;19.92;58.12;101181.78;4783778;30;20420;-80
2023/09/21 01:50:43;;;;;;;0.28;0.28;;;;;;;19.81;58.87;101187.88;4785011;29;20462;-79
2023/09/21 01:53:09;;;;;;;0.50;0.50;;;;;;;19.80;58.75;101184.34;4783388;29;20446;-79
2023/09/21 01:55:35;;;;;;;0.27;0.27;;;;;;;19.94;58.20;101181.56;4768927;30;20416;-79
2023/09/21 01:58:02;;;;;;;0.30;0.30;;;;;;;19.92;58.14;101178.28;4768358;30;20943;-79
2023/09/21 02:00:28;;;;;;;0.20;0.20;;;;;;;19.91;58.29;101174.75;4783953;30;20835;-79
2023/09/21 02:02:55;;;;;;;0.20;0.20;;;;;;;19.92;58.23;101183.66;4785153;29;20980;-78
2023/09/21 02:05:21;;;;;;;0.40;0.20;;;;;;;19.86;58.46;101172.72;4768724;30;20412;-78
2023/09/21 02:07:48;;;;;;;0.40;0.40;;;;;;;19.89;58.43;101168.75;4785137;29;20424;-78
2023/09/21 02:10:19;;;;;;;0.10;0.10;;;;;;;19.85;58.70;101175.63;4768721;30;20404;-79
2023/09/21 02:12:57;;;;;;;0.30;0.30;;;;;;;19.83;58.66;101164.28;4783383;30;20578;-79
2023/09/21 02:15:24;;;;;;;0.20;0.20;;;;;;;19.81;58.74;101160.97;4768778;30;20416;-79
2023/09/21 02:17:52;;;;;;;0.50;0.50;;;;;;;19.76;58.86;101169.69;4783394;29;20458;-78
2023/09/21 02:20:20;;;;;;;0.40;0.40;;;;;;;19.83;58.53;101158.88;4784658;29;21182;-79
2023/09/21 02:22:48;;;;;;;0.40;0.40;;;;;;;19.88;58.42;101148.28;4784632;29;20451;-78
2023/09/21 02:25:14;;;;;;;0.40;0.40;;;;;;;19.91;58.08;101160.47;4783412;29;20916;-79
2023/09/21 02:27:43;;;;;;;0.10;0.10;;;;;;;19.85;58.47;101151.41;4784518;29;20432;-79
2023/09/21 02:30:16;;;;;;;0.32;0.32;;;;;;;19.66;59.03;101151.34;4783387;30;20461;-79
2023/09/21 02:32:49;;;;;;;0.10;0.10;;;;;;;19.67;58.97;101144.91;4783417;29;20513;-78
2023/09/21 02:35:18;;;;;;;0.20;0.20;;;;;;;19.84;58.39;101149.75;4754896;30;20440;-78
2023/09/21 02:37:46;;;;;;;0.32;0.32;;;;;;;19.82;58.42;101152.66;4783335;30;20412;-77
2023/09/21 02:40:17;;;;;;;0.40;0.40;;;;;;;19.83;58.33;101142.75;4783378;30;20496;-78
2023/09/21 02:43:00;;;;;;;0.17;0.17;;;;;;;19.78;58.67;101148.78;4784544;29;20973;-78
2023/09/21 02:45:29;;;;;;;0.20;0.20;;;;;;;19.72;58.70;101154.22;4783236;29;20787;-80
2023/09/21 02:48:07;;;;;;;0.10;0.10;;;;;;;19.64;59.02;101157.97;4772562;29;20501;-80
2023/09/21 02:50:34;;;;;;;0.20;0.20;;;;;;;19.82;58.52;101158.03;4765222;30;20525;-80
2023/09/21 02:53:06;;;;;;;1.00;0.40;;;;;;;19.98;57.95;101164.75;4766637;30;20484;-80
2023/09/21 02:55:33;;;;;;;0.15;0.15;;;;;;;20.07;57.53;101173.34;4765465;30;20445;-80
2023/09/21 02:58:06;;;;;;;0.20;0.20;;;;;;;20.05;57.59;101184.34;4765658;30;20422;-81
2023/09/21 03:00:39;;;;;;;0.40;0.40;;;;;;;19.88;57.83;101183.28;4751767;30;20832;-80
2023/09/21 03:03:06;;;;;;;0.30;0.30;;;;;;;19.83;58.37;101189.31;4765488;30;20484;-80
2023/09/21 03:05:46;;;;;;;0.20;0.20;;;;;;;19.73;58.85;101183.59;4766406;30;20790;-81
2023/09/21 03:08:14;;;;;;;0.40;0.40;;;;;;;19.54;59.41;101171.91;4751010;30;20434;-79
2023/09/21 03:10:40;;;;;;;0.20;0.20;;;;;;;19.59;59.33;101182.84;4770336;30;20884;-81
2023/09/21 03:13:07;;;;;;;0.40;0.17;;;;;;;19.71;58.78;101190.19;4768422;30;21029;-78
2023/09/21 03:15:34;;;;;;;2.45;0.65;;;;;;;19.76;58.67;101190.41;4768469;30;20409;-81
2023/09/21 03:18:00;;;;;;;0.10;0.10;;;;;;;19.77;58.66;101192.88;4768390;30;20434;-80
2023/09/21 03:22:54;;;;;;;0.27;0.27;;;;;;;19.86;58.49;101190.72;4768581;30;20472;-80
2023/09/21 03:25:25;;;;;;;0.30;0.30;;;;;;;19.89;58.37;101195.66;4767053;30;20418;-81
2023/09/21 03:27:52;;;;;;;0.40;0.40;;;;;;;19.86;58.66;101194.25;4768017;30;20506;-82
2023/09/21 03:30:19;;;;;;;0.10;0.10;;;;;;;19.86;58.44;101191.56;4767904;30;20487;-81
2023/09/21 03:32:46;;;;;;;0.10;0.10;;;;;;;19.89;58.34;101192.16;4768304;30;20418;-80
2023/09/21 03:35:14;;;;;;;0.20;0.20;;;;;;;19.89;58.37;101184.09;4768327;30;20402;-79
2023/09/21 03:37:50;;;;;;;0.10;0.10;;;;;;;19.84;58.32;101184.72;4769491;30;20475;-78
2023/09/21 03:40:20;;;;;;;0.60;0.60;;;;;;;19.73;58.48;101183.59;4769630;30;20487;-80
2023/09/21 03:42:46;;;;;;;0.10;0.10;;;;;;;19.70;58.90;101185.84;4768479;30;20422;-80
2023/09/21 03:45:15;;;;;;;0.27;0.27;;;;;;;19.73;58.54;101196.19;4769248;30;20406;-80
2023/09/21 03:47:43;;;;;;;0.20;0.20;;;;;;;19.73;58.46;101190.81;4767999;30;20430;-80
2023/09/21 03:50:14;;;;;;;0.60;0.60;;;;;;;19.71;58.44;101179.44;4768008;30;20438;-80
2023/09/21 03:52:44;;;;;;;0.30;0.30;;;;;;;19.70;58.36;101167.88;4769032;30;20433;-81
2023/09/21 03:55:17;;;;;;;0.10;0.10;;;;;;;19.76;58.43;101168.88;4768134;30;20434;-81
2023/09/21 03:57:46;;;;;;;0.20;0.20;;;;;;;19.88;57.95;101169.81;4769190;30;20525;-82
2023/09/21 04:00:30;;;;;;;0.20;0.20;;;;;;;19.86;57.97;101167.34;4770344;30;20924;-82
2023/09/21 04:05:42;;;;;;;0.20;0.20;;;;;;;19.92;57.88;101173.72;4786909;30;20474;-82
2023/09/21 04:08:08;;;;;;;0.20;0.20;;;;;;;19.99;57.70;101181.72;4787272;29;20924;-81
2023/09/21 04:10:33;;;;;;;0.30;0.30;;;;;;;20.02;57.61;101190.19;4786117;29;20826;-81
2023/09/21 04:12:59;;;;;;;0.10;0.10;;;;;;;19.90;58.16;101183.03;4785785;29;20954;-80
2023/09/21 04:15:26;;;;;;;0.10;0.10;;;;;;;19.91;58.23;101185.50;4800919;29;20439;-80
2023/09/21 04:17:55;;;;;;;0.30;0.30;;;;;;;19.96;58.16;101190.22;4770841;30;20496;-80
2023/09/21 04:20:21;;;;;;;0.50;0.50;;;;;;;19.96;58.10;101187.53;4784911;29;20408;-79
2023/09/21 04:22:52;;;;;;;0.10;0.10;;;;;;;19.98;57.89;101183.56;4787652;29;20413;-82
2023/09/21 04:25:18;;;;;;;0.10;0.10;;;;;;;19.99;57.92;101185.22;4785934;30;20491;-80
2023/09/21 04:27:45;;;;;;;0.10;0.10;;;;;;;19.99;58.01;101173.66;4785876;30;20424;-80
2023/09/21 04:30:14;;;;;;;0.10;0.10;;;;;;;19.91;58.21;101174.75;4785723;29;20451;-81
2023/09/21 04:32:53;;;;;;;0.15;0.15;;;;;;;19.95;58.13;101181.34;4786960;29;20410;-81
2023/09/21 04:35:22;;;;;;;0.20;0.20;;;;;;;19.91;58.36;101184.69;4782745;30;20770;-81
2023/09/21 04:37:56;;;;;;;0.20;0.20;;;;;;;19.91;58.43;101177.44;4786503;29;20408;-79
2023/09/21 04:40:23;;;;;;;0.40;0.40;;;;;;;19.93;58.21;101183.41;4787084;29;20404;-82
2023/09/21 04:42:48;;;;;;;0.20;0.13;;;;;;;19.95;58.25;101184.03;4784451;30;20413;-80
2023/09/21 04:45:16;;;;;;;0.35;0.35;;;;;;;19.95;58.08;101181.34;4784954;29;20417;-81
2023/09/21 04:47:49;;;;;;;0.30;0.30;;;;;;;19.98;58.29;101180.88;4785320;29;20936;-81
2023/09/21 04:50:16;;;;;;;0.13;0.13;;;;;;;19.99;58.04;101179.03;4784704;29;20404;-82
2023/09/21 04:52:43;;;;;;;0.30;0.30;;;;;;;20.02;58.19;101183.97;4786282;29;20412;-81
2023/09/21 04:55:10;;;;;;;0.20;0.20;;;;;;;20.09;58.07;101191.97;4783604;30;20797;-82
2023/09/21 04:57:37;;;;;;;0.20;0.20;;;;;;;20.17;57.84;101192.53;4785409;29;20404;-82
2023/09/21 05:00:07;;;;;;;0.20;0.20;;;;;;;20.11;57.95;101189.88;4784604;30;20777;-81
2023/09/21 05:02:34;;;;;;;0.20;0.20;;;;;;;20.12;58.08;101186.97;4786752;29;20793;-82
2023/09/21 05:05:00;;;;;;;0.40;0.40;;;;;;;20.11;58.16;101189.88;4790267;29;20893;-83
2023/09/21 05:07:27;;;;;;;0.20;0.20;;;;;;;20.11;58.31;101193.38;4800657;29;20439;-82
2023/09/21 05:09:52;;;;;;;0.17;0.17;;;;;;;20.16;58.29;101185.47;4787090;29;20469;-82
2023/09/21 05:12:19;;;;;;;0.28;0.28;;;;;;;20.25;58.22;101189.53;4786268;29;20405;-80
2023/09/21 05:14:48;;;;;;;0.60;0.60;;;;;;;20.38;57.99;101196.66;4786035;29;20408;-81
2023/09/21 05:17:15;;;;;;;0.25;0.25;;;;;;;20.39;57.82;101203.69;4770476;30;20855;-82
2023/09/21 05:19:41;;;;;;;0.32;0.32;;;;;;;20.40;57.95;101202.66;4786249;29;20423;-80
2023/09/21 05:22:09;;;;;;;0.17;0.17;;;;;;;20.39;57.92;101203.69;4784602;29;20408;-82
2023/09/21 05:24:39;;;;;;;0.10;0.10;;;;;;;20.50;57.84;101202.13;4785840;29;20408;-81
2023/09/21 05:27:07;;;;;;;0.15;0.15;;;;;;;20.65;57.44;101198.25;4755456;30;20460;-81
2023/09/21 05:29:33;;;;;;;0.75;0.60;;;;;;;20.68;57.27;101209.41;4784969;30;20831;-81
2023/09/21 05:32:05;;;;;;;0.27;0.27;;;;;;;20.50;57.81;101215.56;4783915;29;20440;-80
2023/09/21 05:34:32;;;;;;;0.10;0.10;;;;;;;20.52;57.80;101218.06;4785756;29;20408;-81
2023/09/21 05:36:57;;;;;;;0.20;0.20;;;;;;;20.50;58.00;101217.47;4785450;29;20485;-80
2023/09/21 05:39:24;;;;;;;0.80;0.80;;;;;;;20.49;57.93;101207.72;4785554;29;20491;-83
2023/09/21 05:41:51;;;;;;;0.20;0.20;;;;;;;20.48;57.95;101214.16;4784323;30;20408;-79
2023/09/21 05:44:21;;;;;;;0.17;0.17;;;;;;;20.53;57.71;101214.31;4770272;30;20428;-81
2023/09/21 05:46:55;;;;;;;0.30;0.30;;;;;;;20.59;57.48;101197.25;4784552;30;20452;-82
2023/09/21 05:49:24;;;;;;;0.60;0.50;;;;;;;20.72;57.17;101213.28;4785098;30;20513;-80
2023/09/21 05:51:56;;;;;;;0.10;0.10;;;;;;;20.86;56.93;101211.25;4785902;29;20485;-79
2023/09/21 05:54:26;;;;;;;0.32;0.32;;;;;;;20.86;57.03;101222.03;4785743;29;20474;-78
2023/09/21 05:56:56;;;;;;;0.60;0.60;;;;;;;20.90;56.77;101207.06;4785356;29;20968;-80
2023/09/21 05:59:25;;;;;;;0.20;0.20;;;;;;;21.02;56.50;101212.53;4785383;29;20448;-80
2023/09/21 06:01:57;;;;;;;0.10;0.10;;;;;;;21.12;56.19;101204.72;4786207;29;20915;-81
2023/09/21 06:04:23;;;;;;;0.30;0.30;;;;;;;21.19;55.91;101207.31;4784129;30;20412;-80
2023/09/21 06:06:55;;;;;;;0.43;0.43;;;;;;;21.23;55.87;101216.59;4785596;29;20500;-80
2023/09/21 06:09:22;;;;;;;0.10;0.10;;;;;;;21.21;55.69;101205.19;4769653;30;20429;-80
2023/09/21 06:11:50;;;;;;;0.10;0.10;;;;;;;21.21;55.81;101207.91;4785350;29;20491;-82
2023/09/21 06:14:22;;;;;;;0.15;0.15;;;;;;;21.26;55.34;101216.13;4784031;29;20498;-80
2023/09/21 06:16:51;;;;;;;0.23;0.23;;;;;;;21.34;55.22;101209.59;4784301;30;20423;-79
2023/09/21 06:19:18;;;;;;;0.45;0.45;;;;;;;21.31;54.85;101208.16;4798898;29;20423;-80
2023/09/21 06:21:47;;;;;;;0.10;0.10;;;;;;;21.45;54.84;101219.63;4783774;30;20812;-79
2023/09/21 06:24:14;;;;;;;0.20;0.20;;;;;;;21.44;54.62;101212.53;4783872;29;20452;-80
2023/09/21 06:26:41;;;;;;;0.15;0.15;;;;;;;21.46;54.52;101209.66;4785441;29;20947;-81
2023/09/21 06:29:10;;;;;;;0.32;0.32;;;;;;;21.47;54.53;101211.31;4783712;30;20424;-80
2023/09/21 06:31:36;;;;;;;0.70;0.70;;;;;;;21.51;54.37;101207.91;4798135;29;20425;-77
2023/09/21 06:34:07;;;;;;;0.20;0.20;;;;;;;21.57;54.43;101207.00;4784216;30;20514;-78
2023/09/21 06:36:33;;;;;;;0.55;0.55;;;;;;;21.65;54.41;101213.94;4784096;29;20396;-78
2023/09/21 06:39:04;;;;;;;0.55;0.55;;;;;;;21.65;54.06;101210.41;4785454;29;20488;-79
2023/09/21 06:41:30;;;;;;;0.10;0.10;;;;;;;21.80;54.06;101223.47;4785280;29;20419;-79
2023/09/21 06:43:57;;;;;;;0.15;0.15;;;;;;;21.71;53.48;101217.56;4786931;29;20406;-82
2023/09/21 06:46:23;;;;;;;0.23;0.23;;;;;;;21.63;53.44;101224.13;4787378;30;20412;-81
2023/09/21 06:48:48;;;;;;;0.28;0.28;;;;;;;21.53;53.57;101215.78;4772372;30;20415;-80
2023/09/21 06:51:15;;;;;;;0.20;0.20;;;;;;;21.64;53.58;101225.75;4788667;29;20811;-80
2023/09/21 06:53:40;;;;;;;0.20;0.20;;;;;;;21.73;53.48;101219.00;4786209;29;20437;-81
2023/09/21 06:56:07;;;;;;;0.32;0.32;;;;;;;21.90;53.21;101212.91;4788452;29;20400;-82
2023/09/21 06:58:34;;;;;;;0.20;0.20;;;;;;;22.08;53.02;101223.59;4788191;29;20404;-81
2023/09/21 07:01:02;;;;;;;0.10;0.10;;;;;;;22.09;52.71;101221.72;4772937;30;20503;-83
2023/09/21 07:03:33;;;;;;;0.10;0.10;;;;;;;22.11;52.55;101222.31;4788572;30;20434;-82
2023/09/21 07:06:19;;;;;;;0.10;0.10;;;;;;;22.13;52.53;101225.63;4787014;30;20435;-81
2023/09/21 07:08:47;;;;;;;0.20;0.20;;;;;;;22.25;52.48;101221.00;4773589;30;20419;-82
2023/09/21 07:11:15;;;;;;;0.10;0.10;;;;;;;22.28;52.59;101220.59;4787272;30;20412;-82
2023/09/21 07:13:42;;;;;;;0.10;0.10;;;;;;;22.35;52.38;101231.28;4772674;30;20966;-81
2023/09/21 07:16:08;;;;;;;0.10;0.10;;;;;;;22.24;52.35;101221.28;4789204;30;20411;-81
2023/09/21 07:18:34;;;;;;;0.10;0.10;;;;;;;22.33;52.31;101225.28;4772817;30;20522;-82
2023/09/21 07:20:59;;;;;;;0.60;0.40;;;;;;;22.43;51.88;101230.91;4788569;29;20916;-82
2023/09/21 07:23:25;;;;;;;0.10;0.10;;;;;;;22.46;51.95;101225.03;4788240;29;20480;-81
2023/09/21 07:25:57;;;;;;;0.20;0.20;;;;;;;22.58;51.82;101225.03;4772016;30;20412;-84
2023/09/21 07:28:24;;;;;;;0.10;0.10;;;;;;;22.64;51.49;101221.34;4787176;30;20436;-82
2023/09/21 07:30:59;;;;;;;0.00;0.00;;;;;;;22.58;51.20;101227.72;4771752;30;20485;-82
2023/09/21 07:33:30;;;;;;;0.10;0.10;;;;;;;22.61;51.28;101227.22;4788451;29;20412;-82
2023/09/21 07:35:59;;;;;;;0.17;0.17;;;;;;;22.80;51.06;101230.63;4787317;30;20413;-82
2023/09/21 07:38:27;;;;;;;0.70;0.20;;;;;;;22.93;50.81;101231.41;4787636;30;20908;-82
2023/09/21 07:40:53;;;;;;;0.13;0.13;;;;;;;22.89;50.56;101233.75;4787814;29;20473;-80
2023/09/21 07:43:18;;;;;;;0.13;0.13;;;;;;;22.89;50.42;101233.75;4802242;29;20400;-82
2023/09/21 07:45:49;;;;;;;2.17;1.07;;;;;;;22.88;50.29;101242.94;4786773;30;20411;-80
2023/09/21 07:48:22;;;;;;;0.10;0.10;;;;;;;22.71;50.31;101235.56;4787809;29;20530;-85
2023/09/21 07:50:49;;;;;;;0.57;0.35;;;;;;;22.88;50.39;101238.31;4788159;29;20416;-82
2023/09/21 07:53:15;;;;;;;0.30;0.30;;;;;;;23.16;50.15;101230.53;4787862;29;20463;-81
2023/09/21 07:55:42;;;;;;;0.23;0.23;;;;;;;23.21;49.50;101233.31;4786905;29;20424;-84
2023/09/21 07:58:07;;;;;;;0.60;0.50;;;;;;;23.25;49.63;101238.00;4786522;30;20523;-80
2023/09/21 08:00:33;;;;;;;0.30;0.30;;;;;;;23.42;49.51;101239.94;4787446;29;20412;-81
2023/09/21 08:03:02;;;;;;;0.27;0.27;;;;;;;23.59;49.03;101231.84;4787640;29;20485;-81
2023/09/21 08:05:30;;;;;;;0.32;0.32;;;;;;;23.70;48.70;101222.84;4786341;30;20805;-82
2023/09/21 08:07:57;;;;;;;0.30;0.30;;;;;;;23.71;48.51;101212.81;4786653;29;20424;-81
2023/09/21 08:10:24;;;;;;;0.17;0.17;;;;;;;23.77;48.35;101218.09;4772350;30;20447;-81
2023/09/21 08:12:51;;;;;;;0.20;0.20;;;;;;;23.87;48.39;101214.75;4772095;30;20462;-80
2023/09/21 08:15:21;;;;;;;0.30;0.30;;;;;;;23.93;47.55;101221.06;4787959;29;20416;-81
2023/09/21 08:17:46;;;;;;;0.60;0.50;;;;;;;23.90;47.60;101213.44;4787618;29;20401;-81
2023/09/21 08:20:13;;;;;;;0.30;0.30;;;;;;;24.08;47.49;101223.19;4788072;29;20474;-82
2023/09/21 08:22:41;;;;;;;0.20;0.20;;;;;;;24.22;47.19;101221.78;4800673;29;20428;-81
2023/09/21 08:25:08;;;;;;;0.10;0.10;;;;;;;24.11;47.12;101225.38;4786053;30;20492;-81
2023/09/21 08:27:34;;;;;;;0.40;0.40;;;;;;;24.08;47.46;101232.13;4787347;29;20432;-81
2023/09/21 08:30:04;;;;;;;0.30;0.30;;;;;;;24.29;47.22;101230.56;4787671;29;20481;-81
2023/09/21 08:32:32;;;;;;;0.20;0.20;;;;;;;24.47;46.77;101240.28;4786907;29;21112;-82
2023/09/21 08:34:57;;;;;;;0.20;0.20;;;;;;;24.41;46.59;101231.25;4786921;29;20408;-80
2023/09/21 08:37:25;;;;;;;0.20;0.20;;;;;;;24.28;46.78;101249.75;4770762;30;20413;-81
2023/09/21 08:39:50;;;;;;;0.10;0.10;;;;;;;24.27;46.65;101251.63;4786856;29;20947;-80
2023/09/21 08:42:17;;;;;;;0.40;0.40;;;;;;;24.34;46.72;101246.03;4801259;29;20430;-85
2023/09/21 08:44:47;;;;;;;0.22;0.22;;;;;;;24.24;46.28;101239.41;4786261;30;20424;-82
2023/09/21 08:47:17;;;;;;;0.27;0.27;;;;;;;24.28;46.43;101244.34;4787275;29;20432;-80
2023/09/21 08:49:46;;;;;;;0.13;0.13;;;;;;;24.23;46.42;101228.81;4786543;30;20480;-83
2023/09/21 08:52:13;;;;;;;0.20;0.20;;;;;;;24.38;46.06;101237.19;4772314;30;20404;-82
2023/09/21 08:54:42;;;;;;;0.20;0.20;;;;;;;24.34;46.36;101235.22;4790586;29;20855;-81
2023/09/21 08:57:13;;;;;;;0.35;0.35;;;;;;;24.52;46.04;101234.91;4787091;29;20491;-80
2023/09/21 08:59:45;;;;;;;0.10;0.10;;;;;;;24.66;45.64;101229.97;4785868;30;20507;-81
2023/09/21 09:02:17;;;;;;;0.30;0.30;;;;;;;24.59;45.84;101224.72;4770695;30;20436;-82
2023/09/21 09:04:48;;;;;;;0.25;0.25;;;;;;;24.66;45.75;101218.31;4786703;29;20408;-81
2023/09/21 09:07:14;;;;;;;0.20;0.20;;;;;;;24.67;45.71;101222.66;4772347;29;20532;-81
2023/09/21 09:09:41;;;;;;;0.30;0.30;;;;;;;24.73;45.70;101224.38;4802774;29;20419;-83
2023/09/21 09:12:22;;;;;;;0.20;0.20;;;;;;;24.78;45.60;101222.53;4802539;29;20442;-80
2023/09/21 09:14:50;;;;;;;0.60;0.60;;;;;;;24.73;45.71;101218.97;4810446;29;20418;-80
2023/09/21 09:17:17;;;;;;;0.32;0.32;;;;;;;24.88;45.54;101215.59;4805431;29;20530;-80
2023/09/21 09:19:43;;;;;;;1.30;0.45;;;;;;;25.06;45.39;101204.41;4787594;29;20846;-80
2023/09/21 09:22:15;;;;;;;0.20;0.20;;;;;;;24.84;45.46;101209.06;4787427;29;20435;-82
2023/09/21 09:24:48;;;;;;;0.20;0.20;;;;;;;24.75;45.56;101209.47;4802399;29;20516;-82
2023/09/21 09:27:14;;;;;;;0.75;0.38;;;;;;;24.91;45.35;101205.06;4787134;29;20515;-81
2023/09/21 09:29:54;;;;;;;0.50;0.50;;;;;;;25.11;45.12;101209.88;4802339;29;20463;-82
2023/09/21 09:32:23;;;;;;;0.20;0.20;;;;;;;25.17;45.00;101203.47;4787226;29;20464;-83
2023/09/21 09:34:49;;;;;;;0.47;0.47;;;;;;;25.10;44.90;101207.44;4802575;29;20415;-82
2023/09/21 09:37:16;;;;;;;1.63;0.60;;;;;;;25.15;44.74;101211.00;4785293;29;20483;-81
2023/09/21 09:39:47;;;;;;;0.45;0.45;;;;;;;24.89;45.08;101215.34;4783534;30;20484;-80
2023/09/21 09:42:13;;;;;;;0.50;0.50;;;;;;;24.96;45.00;101220.59;4765979;30;20411;-80
2023/09/21 09:44:48;;;;;;;0.22;0.22;;;;;;;24.93;45.06;101223.81;4750987;30;20497;-80
2023/09/21 09:47:19;;;;;;;0.10;0.10;;;;;;;25.02;45.00;101213.31;4765781;30;20462;-81
2023/09/21 09:49:49;;;;;;;0.30;0.30;;;;;;;25.12;44.71;101219.69;4736741;30;20945;-81
2023/09/21 09:52:18;;;;;;;0.25;0.25;;;;;;;25.18;44.92;101220.53;4736551;30;20816;-79
2023/09/21 09:54:48;;;;;;;0.30;0.30;;;;;;;25.30;44.81;101214.97;4765193;30;20434;-81
2023/09/21 09:57:17;;;;;;;0.70;0.70;;;;;;;25.12;44.84;101216.13;4765258;30;20410;-82
2023/09/21 09:59:47;;;;;;;0.20;0.20;;;;;;;25.25;44.86;101225.81;4736163;30;20422;-82
2023/09/21 10:02:18;;;;;;;0.22;0.22;;;;;;;25.29;44.45;101222.31;4768492;30;20418;-81
2023/09/21 10:04:49;;;;;;;0.30;0.30;;;;;;;25.39;44.42;101224.31;4754589;30;20439;-81
2023/09/21 10:07:17;;;;;;;0.10;0.10;;;;;;;25.54;44.33;101221.72;4768442;30;20468;-82
2023/09/21 10:09:44;;;;;;;0.30;0.30;;;;;;;25.31;44.28;101208.50;4783549;29;20428;-80
2023/09/21 10:12:14;;;;;;;0.17;0.17;;;;;;;25.30;44.36;101221.25;4782861;30;21034;-81
2023/09/21 10:14:43;;;;;;;0.30;0.30;;;;;;;25.41;44.18;101213.19;4768079;30;20921;-81
2023/09/21 10:17:10;;;;;;;0.20;0.20;;;;;;;25.38;44.20;101214.53;4783286;30;20491;-82
2023/09/21 10:19:38;;;;;;;0.38;0.30;;;;;;;25.57;44.11;101215.00;4783441;30;20570;-82
2023/09/21 10:22:29;;;;;;;0.45;0.40;;;;;;;25.72;43.78;101206.94;4784604;30;20420;-88
2023/09/21 10:24:58;;;;;;;0.20;0.20;;;;;;;25.80;43.57;101199.41;4786469;30;20407;-87
2023/09/21 10:27:28;;;;;;;0.30;0.30;;;;;;;25.98;43.40;101209.06;4758327;30;20432;-91
2023/09/21 10:30:10;;;;;;;0.30;0.30;;;;;;;26.01;43.29;101203.13;4771405;30;20920;-85
2023/09/21 10:32:45;;;;;;;0.80;0.80;;;;;;;25.97;43.08;101204.72;4767620;30;20430;-80
2023/09/21 10:35:45;;;;;;;0.20;0.20;;;;;;;26.03;43.26;101188.19;4768347;30;20418;-81
2023/09/21 10:38:17;;;;;;;0.32;0.32;;;;;;;26.29;43.04;101193.78;4754031;30;20490;-86
2023/09/21 10:40:43;;;;;;;0.30;0.30;;;;;;;26.32;42.46;101185.91;4785594;30;20444;-82
2023/09/21 10:43:42;;;;;;;0.20;0.20;;;;;;;26.28;42.75;101182.06;4769478;30;20784;-82
2023/09/21 10:46:23;;;;;;;0.20;0.20;;;;;;;26.10;42.87;101183.34;4768633;30;20455;-82
2023/09/21 10:49:05;;;;;;;0.60;0.60;;;;;;;26.09;42.85;101187.16;4783364;30;20806;-81
2023/09/21 10:51:31;;;;;;;0.15;0.15;;;;;;;26.12;42.77;101183.09;4784056;30;20461;-80
2023/09/21 10:54:00;;;;;;;0.20;0.20;;;;;;;26.28;42.61;101184.00;4768131;30;20581;-83
2023/09/21 10:56:28;;;;;;;0.20;0.20;;;;;;;26.41;42.79;101180.78;4768722;30;20511;-83
2023/09/21 10:58:54;;;;;;;0.30;0.30;;;;;;;26.17;42.74;101179.59;4785133;29;20416;-86
2023/09/21 11:01:21;;;;;;;0.40;0.30;;;;;;;26.16;42.77;101167.88;4783875;30;20397;-84
2023/09/21 11:03:50;;;;;;;0.22;0.22;;;;;;;26.35;42.49;101172.88;4783577;30;20936;-81
2023/09/21 11:06:19;;;;;;;0.20;0.20;;;;;;;26.51;42.70;101158.28;4787494;29;20411;-83
2023/09/21 11:08:45;;;;;;;0.10;0.10;;;;;;;26.72;42.15;101164.59;4790918;29;20432;-83
2023/09/21 11:11:15;;;;;;;0.30;0.30;;;;;;;26.59;42.29;101144.16;4792184;29;20428;-83
2023/09/21 11:13:44;;;;;;;1.15;0.50;;;;;;;26.70;42.21;101150.47;4784407;29;20415;-81
2023/09/21 11:16:13;;;;;;;0.22;0.22;;;;;;;26.91;42.05;101137.75;4775199;30;20499;-83
2023/09/21 11:18:46;;;;;;;0.20;0.20;;;;;;;27.01;41.85;101131.47;4791927;24;20446;-84
2023/09/21 11:21:12;;;;;;;1.15;0.45;;;;;;;26.98;41.71;101129.31;4790034;29;20411;-82
2023/09/21 11:23:45;;;;;;;2.20;0.80;;;;;;;27.05;41.74;101133.41;4791521;29;20443;-84
2023/09/21 11:26:14;;;;;;;0.20;0.20;;;;;;;27.04;42.01;101128.22;4786818;30;20424;-82
2023/09/21 11:28:41;;;;;;;0.30;0.30;;;;;;;27.24;41.67;101127.44;4783224;30;20435;-82
2023/09/21 11:31:08;;;;;;;0.20;0.20;;;;;;;27.13;41.40;101117.63;4751329;30;20991;-85
2023/09/21 11:33:38;;;;;;;0.80;0.80;;;;;;;27.20;41.47;101115.47;4776389;30;20539;-84
2023/09/21 11:36:10;;;;;;;0.20;0.20;;;;;;;27.02;41.42;101109.44;4775104;30;20431;-84
2023/09/21 11:38:36;;;;;;;1.50;0.40;;;;;;;27.25;41.36;101101.84;4773475;30;20424;-82